Flight Track Log - Related Links

Times and Time Zones

All times are in EDT time to prevent confusion due to time zone crossing. See the AWE1809 flight status page for this flight to view local times or setup timezone preferences in your user account.

Time Position Orientation Groundspeed Altitude Reporting Facility
EDT Latitude Longitude Course Direction KTS MPH feet Rate Location/Type
Wed 08:49:13 AM 42.7236 -73.8081 216° Southwest 155 178 1,400  Level Boston Center
Wed 08:50:32 AM 42.6708 -73.8547 213° Southwest 241 277 4,500 2,288 Climbing Boston Center
Wed 08:51:32 AM 42.6822 -73.9397 280° West 266 306 6,700 2,750 Climbing Boston Center
Wed 08:52:00 AM 42.6802 -74.3745 220° Southwest  Level FlightAware Approximate
Wed 08:52:32 AM 42.6997 -74.0392 283° West 276 318 10,000  Level Boston Center
Wed 08:53:00 AM 42.5946 -74.4707 220° Southwest  Level FlightAware Approximate
Wed 08:53:32 AM 42.7189 -74.1442 284° West 286 329 11,500  Level Boston Center
Wed 08:54:00 AM 42.5120 -74.5714 216° Southwest  Level FlightAware Approximate
Wed 08:54:32 AM 42.7439 -74.2892 283° West 334 384 14,400  Level Boston Center
Wed 08:55:32 AM 42.7128 -74.3983 249° West 345 397 17,100 2,450 Climbing Boston Center
Wed 08:56:32 AM 42.6647 -74.5239 243° Southwest 345 397 19,300 1,750 Climbing Boston Center
Wed 08:57:32 AM 42.6061 -74.6461 237° Southwest 361 415 20,600 1,650 Climbing Boston Center
Wed 08:58:32 AM 42.5475 -74.7653 236° Southwest 383 441 22,600 1,800 Climbing Boston Center
Wed 08:59:32 AM 42.4844 -74.8922 236° Southwest 394 453 24,200 1,550 Climbing Boston Center
Wed 09:00:32 AM 42.4233 -75.0192 237° Southwest 399 459 25,700 1,598 Climbing Boston Center
Wed 09:02:51 AM 42.2864 -75.3061 237° Southwest 409 471 29,500 1,650 Climbing New York Center
Wed 09:03:52 AM 42.2233 -75.4306 236° Southwest 409 471 31,200 1,240 Climbing New York Center
Wed 09:04:52 AM 42.1644 -75.5494 236° Southwest 402 463 32,000 397 Climbing New York Center
Wed 09:05:53 AM 42.1056 -75.6681 236° Southwest 397 457 32,000  Level New York Center
Wed 09:06:53 AM 42.0464 -75.7894 237° Southwest 392 451 32,000  Level New York Center
Wed 09:07:51 AM 41.9869 -75.9106 237° Southwest 392 451 32,000  Level New York Center
Wed 09:08:51 AM 41.9275 -76.0314 237° Southwest 392 451 32,000  Level New York Center
Wed 09:09:52 AM 41.8658 -76.1544 236° Southwest 392 451 32,000  Level New York Center
Wed 09:10:52 AM 41.8061 -76.2750 236° Southwest 397 457 32,000  Level New York Center
Wed 09:11:51 AM 41.7444 -76.3950 235° Southwest 397 457 32,000  Level New York Center
Wed 09:12:53 AM 41.6775 -76.5308 237° Southwest 397 457 32,000  Level New York Center
Wed 09:13:51 AM 41.6172 -76.6533 237° Southwest 402 463 32,000  Level New York Center
Wed 09:14:52 AM 41.5600 -76.7592 234° Southwest 402 463 32,000  Level New York Center
Wed 09:15:53 AM 41.4997 -76.8786 236° Southwest 402 463 32,000  Level New York Center
Wed 09:16:51 AM 41.4242 -77.0072 232° Southwest 402 463 32,000  Level New York Center
Wed 09:17:51 AM 41.3578 -77.1228 233° Southwest 407 468 32,000  Level New York Center
Wed 09:18:51 AM 41.2894 -77.2322 230° Southwest 402 463 32,000  Level New York Center
Wed 09:19:52 AM 41.2225 -77.3472 232° Southwest 397 457 32,000  Level New York Center
Wed 09:20:53 AM 41.1539 -77.4564 230° Southwest 397 457 32,000  Level New York Center
Wed 09:21:53 AM 41.0850 -77.5681 231° Southwest 397 457 32,000  Level New York Center
Wed 09:22:54 AM 41.0158 -77.6822 231° Southwest 397 457 32,000  Level New York Center
Wed 09:24:19 AM 40.9122 -77.8519 231° Southwest 411 473 32,000  Level Cleveland Center
Wed 09:25:19 AM 40.8439 -77.9647 231° Southwest 411 473 32,000  Level Cleveland Center
Wed 09:26:19 AM 40.7736 -78.0797 231° Southwest 411 473 32,000  Level Cleveland Center
Wed 09:27:19 AM 40.7031 -78.1919 230° Southwest 411 473 32,000  Level Cleveland Center
Wed 09:28:19 AM 40.6344 -78.3039 231° Southwest 411 473 32,000  Level Cleveland Center
Wed 09:29:19 AM 40.5617 -78.4186 230° Southwest 411 473 32,000  Level Cleveland Center
Wed 09:30:19 AM 40.4906 -78.5328 231° Southwest 411 473 32,000  Level Cleveland Center
Wed 09:31:19 AM 40.4197 -78.6442 230° Southwest 411 473 32,000  Level Cleveland Center
Wed 09:32:19 AM 40.3506 -78.7578 231° Southwest 411 473 32,000  Level Cleveland Center
Wed 09:33:19 AM 40.2772 -78.8686 229° Southwest 411 473 32,000  Level Cleveland Center
Wed 09:34:19 AM 40.2100 -78.9792 231° Southwest 411 473 32,000  Level Cleveland Center
Wed 09:35:19 AM 40.1386 -79.0894 230° Southwest 406 467 32,000  Level Cleveland Center
Wed 09:36:19 AM 40.0672 -79.2022 230° Southwest 406 467 32,000  Level Cleveland Center
Wed 09:37:19 AM 39.9975 -79.3122 230° Southwest 406 467 32,000  Level Cleveland Center
Wed 09:38:19 AM 39.9278 -79.4217 230° Southwest 406 467 32,000  Level Cleveland Center
Wed 09:39:19 AM 39.8558 -79.5339 230° Southwest 406 467 32,000  Level Cleveland Center
Wed 09:40:19 AM 39.7839 -79.6456 230° Southwest 411 473 32,000  Level Cleveland Center
Wed 09:41:19 AM 39.7200 -79.7411 229° Southwest 411 473 32,000  Level Cleveland Center
Wed 09:42:19 AM 39.6478 -79.8497 229° Southwest 411 473 32,000  Level Cleveland Center
Wed 09:44:01 AM 39.5192 -80.0450 230° Southwest 396 456 32,000  Level Indianapolis Center
Wed 09:45:03 AM 39.4461 -80.1531 229° Southwest 398 458 32,000  Level Indianapolis Center
Wed 09:46:05 AM 39.3750 -80.2628 230° Southwest 397 457 32,000  Level Indianapolis Center
Wed 09:47:07 AM 39.3028 -80.3686 229° Southwest 393 452 32,000  Level Indianapolis Center
Wed 09:48:09 AM 39.2311 -80.4758 229° Southwest 393 452 32,000  Level Indianapolis Center
Wed 09:49:11 AM 39.1589 -80.5828 229° Southwest 394 453 32,000  Level Indianapolis Center
Wed 09:50:13 AM 39.0736 -80.7125 230° Southwest 395 455 32,000  Level Indianapolis Center
Wed 09:51:15 AM 39.0011 -80.8189 229° Southwest 396 456 32,000  Level Indianapolis Center
Wed 09:52:17 AM 38.9286 -80.9256 229° Southwest 395 455 32,000  Level Indianapolis Center
Wed 09:53:19 AM 38.8567 -81.0325 229° Southwest 394 453 32,000  Level Indianapolis Center
Wed 09:54:21 AM 38.7836 -81.1386 229° Southwest 394 453 32,000  Level Indianapolis Center
Wed 09:55:23 AM 38.7114 -81.2444 229° Southwest 394 453 32,000  Level Indianapolis Center
Wed 09:56:25 AM 38.6394 -81.3492 229° Southwest 387 445 32,000  Level Indianapolis Center
Wed 09:57:27 AM 38.5667 -81.4550 229° Southwest 386 444 32,000  Level Indianapolis Center
Wed 09:58:29 AM 38.4956 -81.5606 229° Southwest 384 442 32,000  Level Indianapolis Center
Wed 09:59:31 AM 38.4100 -81.6833 228° Southwest 383 441 32,000  Level Indianapolis Center
Wed 10:00:33 AM 38.3331 -81.7728 222° Southwest 385 443 32,000  Level Indianapolis Center
Wed 10:01:35 AM 38.2322 -81.7950 190° South 370 426 32,000 -192 Level Indianapolis Center
Wed 10:02:38 AM 38.1314 -81.8142 189° South 368 423 31,600 -624 Descending Indianapolis Center
Wed 10:03:40 AM 38.0289 -81.8328 188° South 371 427 30,700 -774 Descending Indianapolis Center
Wed 10:04:42 AM 37.9250 -81.8519 188° South 375 432 30,000 -339 Descending Indianapolis Center
Wed 10:05:44 AM 37.8025 -81.8756 189° South 373 429 30,000 -97 Level Indianapolis Center
Wed 10:06:46 AM 37.6994 -81.8950 188° South 372 428 29,800 -484 Descending Indianapolis Center
Wed 10:07:48 AM 37.5931 -81.9144 188° South 382 440 29,000 -387 Descending Indianapolis Center
Wed 10:08:50 AM 37.4867 -81.9336 188° South 384 442 29,000  Level Indianapolis Center
Wed 10:09:52 AM 37.3814 -81.9536 189° South 381 438 29,000  Level Indianapolis Center
Wed 10:10:54 AM 37.2747 -81.9722 188° South 384 442 29,000  Level Indianapolis Center
Wed 10:11:56 AM 37.1517 -81.9961 189° South 383 441 29,000  Level Indianapolis Center
Wed 10:12:58 AM 37.0458 -82.0169 189° South 384 442 29,000 -145 Level Indianapolis Center
Wed 10:14:00 AM 36.9414 -82.0353 188° South 378 435 28,700 -677 Descending Indianapolis Center
Wed 10:15:02 AM 36.8392 -82.0544 189° South 371 427 27,600 -1,016 Descending Indianapolis Center
Wed 10:16:04 AM 36.7386 -82.0731 188° South 364 419 26,600 -968 Descending Indianapolis Center
Wed 10:17:06 AM 36.6411 -82.0911 188° South 355 409 25,600 -1,016 Descending Indianapolis Center
Wed 10:18:08 AM 36.5489 -82.1269 197° South 346 398 24,500 -774 Descending Indianapolis Center
Wed 10:19:10 AM 36.4497 -82.1647 197° South 322 371 24,000 -242 Descending Indianapolis Center
Wed 10:20:12 AM 36.3653 -82.1972 197° South 316 364 24,000  Level Indianapolis Center
Wed 10:21:14 AM 36.2803 -82.2306 198° South 318 366 24,000  Level Indianapolis Center
Wed 10:22:16 AM 36.1969 -82.2669 199° South 317 365 24,000  Level Indianapolis Center
Wed 10:23:18 AM 36.1114 -82.3044 200° South 321 369 24,000 -90 Level Indianapolis Center
Wed 10:24:29 AM 36.0069 -82.3497 199° South 324 373 23,800 -550 Descending Atlanta Center
Wed 10:25:29 AM 35.9253 -82.3156 161° South 306 352 22,800 -1,050 Descending Atlanta Center
Wed 10:26:29 AM 35.8778 -82.2039 118° Southeast 296 341 21,700 -1,150 Descending Atlanta Center
Wed 10:27:29 AM 35.8175 -82.0975 125° Southeast 343 395 20,500 -1,600 Descending Atlanta Center
Wed 10:28:29 AM 35.7700 -81.9861 118° Southeast 370 426 18,500 -2,033 Descending Atlanta Center
Wed 10:30:29 AM 35.6661 -81.7792 122° Southeast 357 411 14,400 -2,033 Descending Atlanta Center
Wed 10:31:29 AM 35.6164 -81.6783 121° Southeast 352 405 12,400 -1,700 Descending Atlanta Center
Wed 10:32:29 AM 35.5708 -81.5903 122° Southeast 328 377 11,000 -1,050 Descending Atlanta Center
Wed 10:33:29 AM 35.5561 -81.4886 100° East 292 336 10,300 -1,099 Descending Atlanta Center
Wed 10:34:40 AM 35.5517 -81.3714 93° East 294 338 8,600 -1,476 Descending Atlanta Center
Wed 10:35:35 AM 35.5517 -81.2794 90° East 284 327 7,200 -881 Descending Atlanta Center
Wed 10:36:29 AM 35.5456 -81.1928 95° East 287 330 7,000 -526 Descending Atlanta Center
Wed 10:37:29 AM 35.5392 -81.0986 95° East 287 330 6,200 -1,023 Descending Atlanta Center
Wed 10:38:38 AM 35.4975 -81.0211 123° Southeast 262 302 4,800 -800 Descending Atlanta Center
Wed 10:39:29 AM 35.4531 -80.9894 150° Southeast 214 246 4,600 -432 Descending Atlanta Center
Wed 10:40:29 AM 35.4069 -80.9861 177° South 175 201 4,000 -657 Descending Atlanta Center
Wed 10:41:46 AM 35.3506 -80.9806 175° South 168 193 3,100 -701 Descending Atlanta Center

Login

Don't have an account? Register now (free) for customized features, flight alerts, and more!